Time;durP1;ratioP1;P1;durP2;ratioP2;P2;SDS_P1;SDS_P2;PMS_P1;PMS_P2;Temp;Humidity;BMP_temperature;BMP_pressure;BME280_temperature;BME280_humidity;BME280_pressure;Samples;Min_cycle;Max_cycle;Signal;HPM_P1;HPM_P2
2021/06/05 00:00:46;;;;;;;22.08;8.00;;;461.10;1587.20;;;;;;5095497;28;20076;-73
2021/06/05 00:03:12;;;;;;;;;;;461.10;1587.20;;;;;;5096176;28;20481;-67
2021/06/05 00:05:47;;;;;;;13.80;7.53;;;461.10;1587.20;;;;;;5095642;28;19904;-72
2021/06/05 00:08:14;;;;;;;15.65;8.55;;;461.00;1587.20;;;;;;5095307;28;20229;-73
2021/06/05 00:10:47;;;;;;;15.23;8.23;;;460.90;1587.20;;;;;;5095314;28;20028;-73
2021/06/05 00:13:16;;;;;;;13.05;7.55;;;460.90;1587.20;;;;;;5095866;28;20055;-73
2021/06/05 00:15:44;;;;;;;14.23;7.90;;;460.90;1587.20;;;;;;5095342;28;20035;-73
2021/06/05 00:18:10;;;;;;;17.25;8.23;;;460.90;1587.20;;;;;;5095197;28;20019;-72
2021/06/05 00:20:36;;;;;;;17.15;8.27;;;460.90;1587.20;;;;;;5095331;28;20030;-69
2021/06/05 00:23:05;;;;;;;18.13;8.35;;;460.80;1612.80;;;;;;5094918;28;20504;-67
2021/06/05 00:25:31;;;;;;;16.63;8.50;;;460.80;1612.80;;;;;;5095073;28;20028;-67
2021/06/05 00:27:58;;;;;;;12.65;8.52;;;460.80;1612.80;;;;;;5095083;28;20473;-68
2021/06/05 00:30:24;;;;;;;18.98;9.88;;;460.80;1612.80;;;;;;5094738;28;20378;-67
2021/06/05 00:32:51;;;;;;;15.73;9.20;;;460.80;1612.80;;;;;;5095279;28;20099;-73
2021/06/05 00:35:17;;;;;;;14.30;8.38;;;460.80;1612.80;;;;;;5094696;28;20032;-73
2021/06/05 00:37:43;;;;;;;21.08;9.15;;;436.10;1587.20;;;;;;5093381;28;20020;-73
2021/06/05 00:40:11;;;;;;;12.57;8.57;;;436.10;1612.80;;;;;;5094633;28;20024;-68
2021/06/05 00:42:36;;;;;;;13.32;8.02;;;436.00;1612.80;;;;;;5094950;28;20027;-68
2021/06/05 00:45:05;;;;;;;14.57;8.60;;;436.00;1587.20;;;;;;5094924;28;20412;-67
2021/06/05 00:47:31;;;;;;;22.60;8.57;;;436.00;1612.80;;;;;;5094679;28;20456;-73
2021/06/05 00:49:56;;;;;;;17.45;8.60;;;435.90;1612.80;;;;;;5094539;28;20024;-73
2021/06/05 00:52:25;;;;;;;14.45;9.43;;;435.90;1612.80;;;;;;5094740;28;20028;-73
2021/06/05 00:54:51;;;;;;;15.70;8.73;;;435.90;1612.80;;;;;;5095098;28;20032;-73
2021/06/05 00:57:17;;;;;;;15.20;8.77;;;435.90;1612.80;;;;;;5094760;28;20035;-72
2021/06/05 00:59:43;;;;;;;15.98;9.50;;;435.80;1638.40;;;;;;5094555;28;20065;-71
2021/06/05 01:02:09;;;;;;;16.70;9.57;;;435.80;1612.80;;;;;;5093065;28;20052;-73
2021/06/05 01:04:36;;;;;;;26.00;10.68;;;435.80;1612.80;;;;;;5094251;28;20024;-68
2021/06/05 01:07:20;;;;;;;16.20;10.02;;;435.80;1612.80;;;;;;5094198;28;20038;-68
2021/06/05 01:10:00;;;;;;;21.80;11.52;;;435.80;1612.80;;;;;;5094393;28;20043;-67
2021/06/05 01:13:05;;;;;;;19.33;11.45;;;435.70;1612.80;;;;;;5094359;28;20012;-66
2021/06/05 01:15:54;;;;;;;24.05;11.32;;;435.60;1638.40;;;;;;5094092;28;20035;-67
2021/06/05 01:18:28;;;;;;;14.27;9.93;;;435.60;1638.40;;;;;;5094189;28;20408;-67
2021/06/05 01:21:13;;;;;;;16.20;9.85;;;435.60;1612.80;;;;;;5094285;28;20069;-69
2021/06/05 01:23:52;;;;;;;16.65;10.52;;;435.60;1638.40;;;;;;5093971;28;20036;-73
2021/06/05 01:26:25;;;;;;;18.33;10.38;;;435.60;1612.80;;;;;;5092729;28;20036;-73
2021/06/05 01:29:02;;;;;;;15.13;10.30;;;435.60;1638.40;;;;;;5094187;28;20020;-67
2021/06/05 01:31:42;;;;;;;18.05;9.80;;;435.60;1638.40;;;;;;5094098;28;20042;-73
2021/06/05 01:34:09;;;;;;;16.58;11.05;;;435.60;1638.40;;;;;;5094013;28;20075;-67
2021/06/05 01:36:40;;;;;;;15.02;9.52;;;435.50;1638.40;;;;;;5094113;28;20020;-67
2021/06/05 01:39:11;;;;;;;16.58;10.20;;;435.50;1664.00;;;;;;5093865;28;20027;-73
2021/06/05 01:41:38;;;;;;;18.30;10.95;;;435.50;1638.40;;;;;;5093738;28;20016;-67
2021/06/05 01:44:06;;;;;;;18.92;10.32;;;435.50;1638.40;;;;;;5093907;28;20602;-72
2021/06/05 01:46:35;;;;;;;21.23;11.38;;;435.50;1638.40;;;;;;5094236;28;20062;-72
2021/06/05 01:49:02;;;;;;;21.73;11.23;;;435.40;1664.00;;;;;;5093208;28;20024;-71
2021/06/05 01:51:29;;;;;;;16.30;10.85;;;435.40;1664.00;;;;;;5093628;28;20021;-73
2021/06/05 01:54:04;;;;;;;22.33;14.30;;;435.40;1664.00;;;;;;5093679;28;20063;-67
2021/06/05 01:56:35;;;;;;;52.67;35.47;;;435.40;1664.00;;;;;;5093805;28;20024;-69
2021/06/05 01:59:02;;;;;;;252.93;178.50;;;435.40;1664.00;;;;;;5093698;28;20028;-67
2021/06/05 02:01:28;;;;;;;245.48;169.48;;;435.40;1664.00;;;;;;5093436;28;20103;-67
2021/06/05 02:03:54;;;;;;;209.77;140.45;;;435.30;1664.00;;;;;;5093492;28;20181;-68
2021/06/05 02:06:24;;;;;;;186.07;132.43;;;435.30;1664.00;;;;;;5093548;28;20020;-73
2021/06/05 02:08:50;;;;;;;232.82;168.27;;;435.30;1664.00;;;;;;5093772;28;20044;-73
2021/06/05 02:11:20;;;;;;;317.98;242.20;;;435.20;1689.60;;;;;;5093621;28;20016;-68
2021/06/05 02:14:11;;;;;;;360.88;269.67;;;435.20;1689.60;;;;;;5093484;28;20036;-70
2021/06/05 02:16:42;;;;;;;415.67;330.23;;;435.20;1689.60;;;;;;5093453;28;20365;-68
2021/06/05 02:19:52;;;;;;;473.00;372.98;;;435.20;1689.60;;;;;;5093282;28;20027;-67
2021/06/05 02:22:22;;;;;;;575.00;466.77;;;435.20;1689.60;;;;;;5031324;28;20041;-68
2021/06/05 02:24:51;;;;;;;686.03;542.90;;;435.20;1689.60;;;;;;5030945;28;20049;-72
2021/06/05 02:27:20;;;;;;;700.15;558.35;;;435.20;1689.60;;;;;;5031083;28;20030;-67
2021/06/05 02:29:47;;;;;;;595.75;477.42;;;410.50;1689.60;;;;;;5031237;28;20038;-72
2021/06/05 02:32:17;;;;;;;417.20;309.77;;;435.20;1689.60;;;;;;5031065;28;20152;-72
2021/06/05 02:34:45;;;;;;;185.80;131.45;;;410.50;1689.60;;;;;;5031247;28;20037;-72
2021/06/05 02:37:14;;;;;;;114.35;80.03;;;410.50;1689.60;;;;;;5030862;28;20325;-67
2021/06/05 02:39:40;;;;;;;131.77;90.93;;;410.40;1689.60;;;;;;5031153;28;20040;-68
2021/06/05 02:42:17;;;;;;;217.77;145.35;;;410.40;1715.20;;;;;;5031106;28;20029;-67
2021/06/05 02:44:47;;;;;;;274.88;186.65;;;410.40;1715.20;;;;;;5031039;28;20022;-71
2021/06/05 02:47:13;;;;;;;221.32;151.38;;;410.40;1715.20;;;;;;5031083;28;20021;-67
2021/06/05 02:49:40;;;;;;;140.98;100.47;;;410.40;1715.20;;;;;;5030878;28;20025;-66
2021/06/05 02:52:28;;;;;;;82.13;54.92;;;410.40;1715.20;;;;;;5030865;28;20038;-67
2021/06/05 02:55:04;;;;;;;48.08;32.70;;;410.30;1715.20;;;;;;5030918;28;20037;-67
2021/06/05 02:57:30;;;;;;;69.75;48.15;;;410.30;1740.80;;;;;;5031712;28;20509;-73
2021/06/05 02:59:56;;;;;;;229.43;147.60;;;410.30;1740.80;;;;;;5093203;28;20028;-67
2021/06/05 03:02:22;;;;;;;705.05;518.90;;;410.30;1740.80;;;;;;5095311;28;20048;-68
2021/06/05 03:04:48;;;;;;;574.45;422.15;;;410.30;1740.80;;;;;;5096538;28;20028;-73
2021/06/05 03:07:15;;;;;;;354.90;234.30;;;410.30;1740.80;;;;;;5096759;28;20024;-67
2021/06/05 03:09:41;;;;;;;115.32;76.70;;;410.30;1740.80;;;;;;5096752;28;20036;-73
2021/06/05 03:12:10;;;;;;;86.25;57.72;;;410.30;1766.40;;;;;;5096624;28;20047;-73
2021/06/05 03:14:38;;;;;;;83.30;53.63;;;410.30;1792.00;;;;;;5095211;28;20036;-68
2021/06/05 03:17:04;;;;;;;72.82;45.00;;;410.30;1792.00;;;;;;5096383;28;20148;-73
2021/06/05 03:19:30;;;;;;;54.75;35.50;;;410.30;1792.00;;;;;;5096477;28;20035;-73
2021/06/05 03:21:56;;;;;;;42.28;30.48;;;410.30;1792.00;;;;;;5096265;28;20025;-67
2021/06/05 03:24:22;;;;;;;41.17;27.40;;;410.30;1817.60;;;;;;5096262;28;20048;-69
2021/06/05 03:26:47;;;;;;;43.80;27.85;;;410.30;1817.60;;;;;;5096405;28;20027;-68
2021/06/05 03:29:13;;;;;;;48.25;29.15;;;410.30;1817.60;;;;;;5096265;28;20027;-67
2021/06/05 03:31:39;;;;;;;55.92;35.70;;;410.30;1843.20;;;;;;5094473;28;20036;-72
2021/06/05 03:34:05;;;;;;;76.03;44.08;;;410.30;1843.20;;;;;;5095992;28;20117;-68
2021/06/05 03:36:31;;;;;;;67.03;41.55;;;410.30;1843.20;;;;;;5096308;28;20017;-73
2021/06/05 03:38:57;;;;;;;71.30;45.28;;;410.30;1843.20;;;;;;5096007;28;20381;-72
2021/06/05 03:41:23;;;;;;;73.13;47.92;;;410.40;1817.60;;;;;;5095973;28;20016;-68
2021/06/05 03:43:48;;;;;;;68.80;45.47;;;410.40;1843.20;;;;;;5095998;28;20035;-68
2021/06/05 03:46:14;;;;;;;54.45;37.17;;;410.40;1817.60;;;;;;5095956;28;20079;-69
2021/06/05 03:48:40;;;;;;;46.55;31.85;;;410.50;1817.60;;;;;;5095952;28;20062;-72
2021/06/05 03:51:07;;;;;;;42.75;27.90;;;410.50;1792.00;;;;;;5095964;28;20017;-68
2021/06/05 03:53:34;;;;;;;47.00;24.65;;;435.20;1817.60;;;;;;5095620;28;20020;-67
2021/06/05 03:56:00;;;;;;;43.03;24.48;;;435.20;1843.20;;;;;;5095818;28;20434;-69
2021/06/05 03:58:29;;;;;;;53.03;31.70;;;435.20;1817.60;;;;;;5093368;28;20398;-72
2021/06/05 04:00:56;;;;;;;54.40;33.25;;;435.20;1843.20;;;;;;5095608;28;20028;-68
2021/06/05 04:03:22;;;;;;;49.03;31.58;;;435.30;1843.20;;;;;;5094231;28;20039;-73
2021/06/05 04:05:48;;;;;;;50.55;29.27;;;435.30;1843.20;;;;;;5095445;28;20024;-68
2021/06/05 04:08:14;;;;;;;49.25;27.67;;;435.30;1817.60;;;;;;5095667;28;20035;-67
2021/06/05 04:10:40;;;;;;;68.32;26.45;;;435.40;1817.60;;;;;;5095576;28;20065;-72
2021/06/05 04:13:06;;;;;;;45.05;23.67;;;435.50;1817.60;;;;;;5094848;28;20436;-73
2021/06/05 04:15:33;;;;;;;44.70;23.13;;;435.50;1843.20;;;;;;5095325;28;20473;-71
2021/06/05 04:18:11;;;;;;;42.90;22.75;;;435.60;1843.20;;;;;;5095294;28;20016;-72
2021/06/05 04:20:39;;;;;;;48.03;25.25;;;435.60;1817.60;;;;;;5095368;28;20030;-68
2021/06/05 04:23:07;;;;;;;59.78;29.10;;;435.80;1792.00;;;;;;5095137;28;20402;-73
2021/06/05 04:25:33;;;;;;;83.18;41.08;;;435.90;1792.00;;;;;;5095299;28;20169;-68
2021/06/05 04:27:59;;;;;;;119.25;56.30;;;435.90;1792.00;;;;;;5095123;28;20021;-73
2021/06/05 04:30:29;;;;;;;116.30;55.28;;;436.00;1766.40;;;;;;5094883;28;20024;-70
2021/06/05 04:32:55;;;;;;;96.78;45.65;;;436.00;1766.40;;;;;;5094761;28;20051;-69
2021/06/05 04:35:21;;;;;;;78.63;37.80;;;460.80;1766.40;;;;;;5094745;28;20457;-73
2021/06/05 04:37:48;;;;;;;66.68;32.55;;;460.80;1766.40;;;;;;5095069;28;20016;-73
2021/06/05 04:40:15;;;;;;;50.25;25.75;;;460.90;1740.80;;;;;;5094991;28;20024;-70
2021/06/05 04:42:41;;;;;;;40.90;22.00;;;461.00;1740.80;;;;;;5094865;28;20028;-68
2021/06/05 04:45:07;;;;;;;49.83;22.50;;;461.20;1715.20;;;;;;5094939;28;20366;-68
2021/06/05 04:47:33;;;;;;;46.05;23.92;;;461.30;1689.60;;;;;;5094928;28;20466;-73
2021/06/05 04:49:59;;;;;;;57.17;28.45;;;461.50;1689.60;;;;;;5093009;28;20028;-70
2021/06/05 04:52:25;;;;;;;71.63;34.45;;;461.70;1638.40;;;;;;5094446;28;20024;-73
2021/06/05 04:54:51;;;;;;;91.72;41.67;;;486.50;1612.80;;;;;;5094579;28;20039;-73
2021/06/05 04:57:17;;;;;;;109.30;45.30;;;486.60;1612.80;;;;;;5094852;28;20024;-73
2021/06/05 04:59:43;;;;;;;91.10;41.85;;;486.90;1587.20;;;;;;5094587;28;20038;-69
2021/06/05 05:02:09;;;;;;;69.25;34.33;;;487.00;1561.60;;;;;;5094346;28;20025;-68
2021/06/05 05:04:35;;;;;;;55.22;27.90;;;487.20;1561.60;;;;;;5094556;28;20036;-68
2021/06/05 05:07:01;;;;;;;50.20;21.88;;;487.30;1536.00;;;;;;5094423;28;20027;-68
2021/06/05 05:09:27;;;;;;;54.55;19.65;;;512.00;1510.40;;;;;;5094409;28;20152;-69
2021/06/05 05:11:53;;;;;;;43.30;17.02;;;512.20;1484.80;;;;;;5094243;28;20047;-68
2021/06/05 05:14:18;;;;;;;41.50;14.05;;;512.40;1484.80;;;;;;5094467;28;20113;-73
2021/06/05 05:16:45;;;;;;;35.30;13.07;;;512.60;1459.20;;;;;;5094902;28;20353;-73
2021/06/05 05:19:11;;;;;;;32.22;11.50;;;512.90;1433.60;;;;;;5094367;28;20024;-73
2021/06/05 05:21:37;;;;;;;17.77;10.02;;;537.60;1459.20;;;;;;5094363;28;20016;-73
2021/06/05 05:24:03;;;;;;;21.70;10.32;;;537.80;1433.60;;;;;;5093094;28;20493;-73
2021/06/05 05:26:29;;;;;;;26.33;11.60;;;538.00;1433.60;;;;;;5094238;28;20062;-68
2021/06/05 05:28:55;;;;;;;25.88;11.15;;;538.10;1433.60;;;;;;5094350;28;20030;-68
2021/06/05 05:31:24;;;;;;;27.58;11.18;;;538.30;1408.00;;;;;;5093918;28;20488;-68
2021/06/05 05:33:50;;;;;;;18.50;10.30;;;538.40;1408.00;;;;;;5092336;28;20063;-69
2021/06/05 05:36:22;;;;;;;26.95;9.70;;;538.50;1382.40;;;;;;5092556;28;20024;-69
2021/06/05 05:38:48;;;;;;;14.90;6.55;;;563.30;1382.40;;;;;;5092447;28;20058;-68
2021/06/05 05:41:17;;;;;;;14.18;7.07;;;563.40;1331.20;;;;;;5092293;28;20099;-68
2021/06/05 05:43:43;;;;;;;16.83;6.13;;;563.50;1280.00;;;;;;5092192;28;20020;-68
2021/06/05 05:46:09;;;;;;;17.75;7.32;;;563.70;1280.00;;;;;;5092197;28;20024;-68
2021/06/05 05:48:36;;;;;;;16.80;7.57;;;563.80;1280.00;;;;;;5092271;28;20020;-68
2021/06/05 05:51:05;;;;;;;27.58;8.27;;;564.10;1228.80;;;;;;5092480;28;20081;-68
2021/06/05 05:53:31;;;;;;;12.82;7.07;;;588.80;1203.20;;;;;;5092092;28;20051;-69
2021/06/05 05:55:57;;;;;;;18.40;8.40;;;589.00;1203.20;;;;;;5092081;28;20090;-68
2021/06/05 05:58:25;;;;;;;23.58;8.25;;;589.20;1177.60;;;;;;5092486;28;20059;-70
2021/06/05 06:00:52;;;;;;;22.85;10.93;;;589.40;1177.60;;;;;;5091996;28;20074;-68
2021/06/05 06:03:19;;;;;;;25.73;12.73;;;589.60;1177.60;;;;;;5089900;28;20020;-69
2021/06/05 06:05:45;;;;;;;31.30;14.23;;;614.40;1177.60;;;;;;5091590;28;20075;-69
2021/06/05 06:08:13;;;;;;;34.03;15.80;;;614.40;1177.60;;;;;;5092116;28;20052;-69
2021/06/05 06:10:40;;;;;;;67.32;27.42;;;614.60;1177.60;;;;;;5091159;28;20482;-68
2021/06/05 06:13:07;;;;;;;47.03;22.63;;;614.80;1177.60;;;;;;5088856;28;20032;-70
2021/06/05 06:15:33;;;;;;;35.58;16.88;;;614.90;1177.60;;;;;;5090911;28;20094;-68
2021/06/05 06:18:00;;;;;;;38.10;13.38;;;614.90;1177.60;;;;;;5091340;28;20028;-68
2021/06/05 06:20:39;;;;;;;19.55;9.52;;;615.20;1152.00;;;;;;5090822;28;20742;-70
2021/06/05 06:23:04;;;;;;;21.08;8.07;;;640.00;1126.40;;;;;;5090893;28;20043;-71
2021/06/05 06:25:32;;;;;;;28.98;6.97;;;640.20;1126.40;;;;;;5086519;28;20466;-69
2021/06/05 06:27:59;;;;;;;22.58;6.43;;;640.40;1100.80;;;;;;5091054;28;20397;-69
2021/06/05 06:30:33;;;;;;;12.25;5.88;;;640.50;1075.20;;;;;;5090138;28;20031;-68
2021/06/05 06:32:59;;;;;;;17.05;5.15;;;640.80;1049.60;;;;;;5087724;28;20118;-71
2021/06/05 06:35:27;;;;;;;10.77;4.80;;;665.60;1024.00;;;;;;5091909;28;20093;-71
2021/06/05 06:37:54;;;;;;;7.90;3.72;;;665.80;998.40;;;;;;5094647;28;20492;-71
2021/06/05 06:40:24;;;;;;;14.73;4.20;;;666.10;1024.00;;;;;;5094544;28;20036;-69
2021/06/05 06:42:49;;;;;;;16.38;4.50;;;666.20;998.40;;;;;;5094678;28;20039;-71
2021/06/05 06:45:16;;;;;;;6.47;3.53;;;666.30;947.20;;;;;;5094896;28;20036;-72
2021/06/05 06:47:42;;;;;;;5.40;3.60;;;691.20;947.20;;;;;;5092140;28;20377;-68
2021/06/05 06:50:09;;;;;;;10.45;3.92;;;691.40;947.20;;;;;;5095366;28;20031;-72
2021/06/05 06:52:35;;;;;;;7.38;3.20;;;691.60;921.60;;;;;;5095946;28;20111;-70
2021/06/05 06:55:04;;;;;;;7.88;3.10;;;691.80;896.00;;;;;;5096216;28;20066;-69
2021/06/05 06:57:30;;;;;;;10.38;3.28;;;691.90;896.00;;;;;;5095263;28;20016;-72
2021/06/05 06:59:56;;;;;;;8.70;3.17;;;692.10;896.00;;;;;;5095666;28;20473;-68
2021/06/05 07:02:21;;;;;;;12.25;3.00;;;716.90;870.40;;;;;;5095160;28;20477;-72
2021/06/05 07:04:50;;;;;;;6.53;3.05;;;717.00;819.20;;;;;;5095493;28;20116;-72
2021/06/05 07:07:16;;;;;;;7.43;3.17;;;717.20;819.20;;;;;;5095906;28;20457;-71
2021/06/05 07:09:42;;;;;;;5.38;3.00;;;717.30;844.80;;;;;;5094780;28;20059;-72
2021/06/05 07:12:08;;;;;;;9.65;3.33;;;717.40;844.80;;;;;;5094259;28;20016;-71
2021/06/05 07:14:34;;;;;;;7.63;3.22;;;717.60;819.20;;;;;;5094485;28;20081;-73
2021/06/05 07:17:00;;;;;;;11.25;3.95;;;717.70;819.20;;;;;;5093304;28;20020;-71
2021/06/05 07:19:27;;;;;;;13.82;4.30;;;742.50;844.80;;;;;;5093096;28;20119;-72
2021/06/05 07:21:53;;;;;;;7.68;3.50;;;742.70;844.80;;;;;;5093226;28;20104;-72
2021/06/05 07:24:18;;;;;;;12.52;3.65;;;742.70;844.80;;;;;;5093568;28;20115;-71
2021/06/05 07:26:45;;;;;;;15.38;3.80;;;742.90;844.80;;;;;;5094979;28;20028;-71
2021/06/05 07:29:12;;;;;;;7.10;3.47;;;743.10;844.80;;;;;;5096294;28;20028;-67
2021/06/05 07:31:48;;;;;;;12.93;3.42;;;743.20;819.20;;;;;;5096132;28;20164;-69
2021/06/05 07:34:14;;;;;;;26.50;4.80;;;768.00;819.20;;;;;;5095787;28;20036;-68
2021/06/05 07:36:48;;;;;;;13.57;4.03;;;768.10;819.20;;;;;;5095969;28;20016;-70
2021/06/05 07:39:16;;;;;;;9.77;3.47;;;768.40;793.60;;;;;;5096083;28;20021;-68
2021/06/05 07:41:43;;;;;;;7.05;3.22;;;768.50;768.00;;;;;;5096144;28;20020;-69
2021/06/05 07:44:10;;;;;;;7.68;3.00;;;768.70;742.40;;;;;;5096165;28;20024;-68
2021/06/05 07:46:44;;;;;;;6.88;2.85;;;768.80;742.40;;;;;;5094930;28;20020;-69
2021/06/05 07:49:10;;;;;;;6.43;3.05;;;793.60;742.40;;;;;;5095619;28;20032;-68
2021/06/05 07:51:36;;;;;;;11.00;3.33;;;793.80;742.40;;;;;;5096429;28;20062;-69
2021/06/05 07:54:03;;;;;;;11.32;2.97;;;793.90;742.40;;;;;;5095279;28;20032;-69
2021/06/05 07:56:29;;;;;;;7.70;2.65;;;794.10;716.80;;;;;;5095413;28;20039;-68
2021/06/05 07:58:54;;;;;;;11.85;3.35;;;794.10;691.20;;;;;;5095248;28;20024;-69
2021/06/05 08:01:22;;;;;;;9.02;3.05;;;794.30;665.60;;;;;;5095795;28;20034;-68
2021/06/05 08:03:49;;;;;;;5.28;2.70;;;794.30;665.60;;;;;;5095672;28;20369;-68
2021/06/05 08:06:15;;;;;;;6.53;3.03;;;819.20;665.60;;;;;;5095267;28;20023;-68
2021/06/05 08:08:41;;;;;;;7.80;3.08;;;819.20;640.00;;;;;;5095885;28;20457;-68
2021/06/05 08:11:07;;;;;;;6.28;2.50;;;819.30;640.00;;;;;;5095508;28;20024;-68
2021/06/05 08:13:33;;;;;;;5.25;2.50;;;819.50;640.00;;;;;;5094894;28;20097;-69
2021/06/05 08:15:59;;;;;;;5.75;2.45;;;819.70;665.60;;;;;;5095440;28;20108;-70
2021/06/05 08:18:25;;;;;;;11.80;2.83;;;819.70;640.00;;;;;;5095501;28;20104;-68
2021/06/05 08:20:55;;;;;;;5.15;2.65;;;819.80;614.40;;;;;;5095461;28;20484;-68
2021/06/05 08:23:23;;;;;;;5.43;2.83;;;819.90;614.40;;;;;;5095207;28;20466;-68
2021/06/05 08:25:49;;;;;;;3.53;2.13;;;819.90;640.00;;;;;;5095769;28;20407;-69
2021/06/05 08:28:17;;;;;;;5.72;2.13;;;820.00;588.80;;;;;;5095235;28;20359;-68
2021/06/05 08:30:46;;;;;;;6.05;2.30;;;844.80;640.00;;;;;;5094934;28;20024;-68
2021/06/05 08:33:13;;;;;;;4.95;2.13;;;844.90;640.00;;;;;;5095132;28;20016;-68
2021/06/05 08:35:39;;;;;;;5.57;2.20;;;845.00;640.00;;;;;;5095009;28;20485;-69
2021/06/05 08:38:07;;;;;;;6.70;2.55;;;845.10;640.00;;;;;;5093448;28;20036;-68
2021/06/05 08:41:01;;;;;;;5.05;1.90;;;845.10;614.40;;;;;;5093097;28;20038;-68
2021/06/05 08:43:30;;;;;;;;;;;845.30;563.20;;;;;;5016372;28;20511;-69
2021/06/05 08:45:59;;;;;;;8.07;2.08;;;845.30;588.80;;;;;;5032530;28;20000;-69
2021/06/05 08:48:25;;;;;;;6.03;2.30;;;845.30;563.20;;;;;;5032921;28;20036;-68
2021/06/05 08:51:02;;;;;;;4.20;2.40;;;845.40;588.80;;;;;;5032416;28;20028;-68
2021/06/05 08:53:28;;;;;;;4.82;2.35;;;845.40;537.60;;;;;;5032669;28;20029;-69
2021/06/05 08:55:58;;;;;;;9.13;2.60;;;845.50;537.60;;;;;;5032530;28;20037;-69
2021/06/05 08:58:39;;;;;;;6.57;2.42;;;845.60;537.60;;;;;;5032397;28;20026;-68
2021/06/05 09:01:13;;;;;;;10.27;2.55;;;870.40;512.00;;;;;;5032477;28;20076;-68
2021/06/05 09:03:40;;;;;;;8.93;2.22;;;870.50;512.00;;;;;;5032435;28;20056;-68
2021/06/05 09:06:29;;;;;;;3.58;2.60;;;870.60;537.60;;;;;;5032225;28;20029;-68
2021/06/05 09:08:55;;;;;;;4.22;2.20;;;870.60;537.60;;;;;;5032295;28;20411;-68
2021/06/05 09:11:21;;;;;;;3.75;2.35;;;870.60;512.00;;;;;;5032651;28;20025;-68
2021/06/05 09:13:47;;;;;;;3.67;2.05;;;870.70;537.60;;;;;;5032017;28;20427;-69
2021/06/05 09:16:19;;;;;;;2.95;2.35;;;870.70;563.20;;;;;;5032072;28;20061;-69
2021/06/05 09:19:08;;;;;;;2.42;2.22;;;870.80;537.60;;;;;;5031909;28;20021;-68
2021/06/05 09:21:34;;;;;;;10.52;2.67;;;870.80;512.00;;;;;;5089774;28;20039;-69
2021/06/05 09:24:14;;;;;;;3.78;2.33;;;870.80;512.00;;;;;;5093853;28;20044;-72
2021/06/05 09:26:43;;;;;;;8.00;2.80;;;870.90;512.00;;;;;;5095060;28;20452;-73
2021/06/05 09:29:16;;;;;;;10.77;2.70;;;870.90;512.00;;;;;;5094254;28;20099;-68
2021/06/05 09:31:53;;;;;;;14.52;3.45;;;871.00;512.00;;;;;;5094029;28;20051;-73
2021/06/05 09:34:18;;;;;;;8.73;2.50;;;871.10;537.60;;;;;;5090900;28;20044;-68
2021/06/05 09:36:44;;;;;;;28.83;4.18;;;871.10;512.00;;;;;;5092567;28;20016;-71
2021/06/05 09:39:13;;;;;;;20.05;3.17;;;871.20;537.60;;;;;;5092582;28;20458;-67
2021/06/05 09:41:48;;;;;;;11.77;2.72;;;871.10;537.60;;;;;;5092380;28;20024;-67
2021/06/05 09:44:42;;;;;;;23.15;3.20;;;871.20;537.60;;;;;;5090653;28;20419;-68
2021/06/05 09:47:16;;;;;;;20.40;4.28;;;871.20;537.60;;;;;;5089214;28;20048;-67
2021/06/05 09:49:46;;;;;;;11.00;2.45;;;871.30;537.60;;;;;;5092527;28;20054;-68
2021/06/05 09:52:35;;;;;;;11.73;3.25;;;871.30;512.00;;;;;;5090119;28;20027;-67
2021/06/05 09:55:28;;;;;;;10.57;3.08;;;871.30;512.00;;;;;;5091362;28;20115;-67
2021/06/05 09:57:55;;;;;;;9.68;2.63;;;896.00;537.60;;;;;;5092255;28;20020;-67
2021/06/05 10:00:32;;;;;;;5.72;2.80;;;896.00;563.20;;;;;;5092383;28;20492;-67
2021/06/05 10:03:24;;;;;;;9.10;4.35;;;896.00;537.60;;;;;;5091697;28;20362;-68
2021/06/05 10:05:51;;;;;;;7.05;3.45;;;896.10;537.60;;;;;;5093752;28;20147;-72
2021/06/05 10:08:35;;;;;;;8.43;4.10;;;896.10;512.00;;;;;;5093593;28;20109;-68
2021/06/05 10:11:16;;;;;;;;;;;896.10;512.00;;;;;;5095664;28;20545;-70
2021/06/05 10:13:44;;;;;;;4.88;2.65;;;896.10;512.00;;;;;;5097632;28;19908;-66
2021/06/05 10:16:21;;;;;;;7.13;2.50;;;896.10;512.00;;;;;;5097725;28;20024;-66
2021/06/05 10:19:08;;;;;;;6.65;2.50;;;896.00;486.40;;;;;;5097600;28;20104;-66
2021/06/05 10:21:45;;;;;;;8.10;2.95;;;896.10;512.00;;;;;;5097767;28;20020;-66
2021/06/05 10:24:23;;;;;;;7.53;3.08;;;896.20;512.00;;;;;;5096931;28;20047;-66
2021/06/05 10:26:50;;;;;;;6.43;2.38;;;896.30;512.00;;;;;;5097400;28;20020;-68
2021/06/05 10:29:45;;;;;;;7.45;2.58;;;896.20;512.00;;;;;;5097964;28;20024;-66
2021/06/05 10:32:19;;;;;;;19.67;3.33;;;896.40;486.40;;;;;;5097436;28;20366;-72
2021/06/05 10:34:53;;;;;;;11.80;3.00;;;896.30;486.40;;;;;;5097379;28;20043;-66
2021/06/05 10:37:24;;;;;;;6.50;2.70;;;896.40;486.40;;;;;;5097049;28;20043;-70
2021/06/05 10:39:52;;;;;;;4.75;2.47;;;896.50;486.40;;;;;;5096733;28;20039;-66
2021/06/05 10:42:42;;;;;;;3.55;2.63;;;896.50;486.40;;;;;;5095879;28;20542;-72
2021/06/05 10:45:29;;;;;;;18.17;2.63;;;896.60;486.40;;;;;;5094817;28;20115;-66
2021/06/05 10:48:16;;;;;;;13.25;3.03;;;896.80;486.40;;;;;;5097815;28;20090;-70
2021/06/05 10:51:14;;;;;;;13.00;3.70;;;896.70;512.00;;;;;;5097148;28;20046;-71
2021/06/05 10:53:48;;;;;;;13.13;2.97;;;896.60;486.40;;;;;;5014796;28;20061;-70
2021/06/05 10:56:18;;;;;;;16.85;2.70;;;896.80;486.40;;;;;;5014434;28;20038;-71
2021/06/05 10:58:51;;;;;;;34.92;4.93;;;896.80;486.40;;;;;;5014690;28;20049;-69
2021/06/05 11:01:29;;;;;;;26.17;4.63;;;896.80;512.00;;;;;;5014409;28;20057;-68
2021/06/05 11:04:01;;;;;;;9.50;2.75;;;896.80;486.40;;;;;;5014372;28;20026;-71
2021/06/05 11:06:49;;;;;;;5.75;2.83;;;896.80;486.40;;;;;;5014277;28;20050;-67
2021/06/05 11:09:29;;;;;;;4.65;2.10;;;896.90;486.40;;;;;;4975533;28;20043;-71
2021/06/05 11:11:59;;;;;;;3.80;2.85;;;921.60;486.40;;;;;;4974737;28;20039;-67
2021/06/05 11:14:37;;;;;;;6.93;2.72;;;921.60;512.00;;;;;;4975119;28;20058;-68
2021/06/05 11:17:17;;;;;;;3.50;2.30;;;921.60;512.00;;;;;;4975256;28;20038;-67
2021/06/05 11:19:50;;;;;;;8.20;2.70;;;921.70;512.00;;;;;;4975106;28;20082;-66
2021/06/05 11:22:19;;;;;;;5.32;2.45;;;921.70;486.40;;;;;;4974181;28;20120;-73
2021/06/05 11:25:08;;;;;;;6.97;2.58;;;921.70;460.80;;;;;;4975227;28;20047;-71
2021/06/05 11:27:53;;;;;;;3.13;2.03;;;921.60;460.80;;;;;;4975300;28;20027;-63
2021/06/05 11:30:22;;;;;;;60.28;5.85;;;896.90;460.80;;;;;;5003550;28;20033;-66
2021/06/05 11:33:00;;;;;;;71.03;7.20;;;896.90;486.40;;;;;;5050525;28;20060;-71
2021/06/05 11:35:47;;;;;;;29.50;4.45;;;896.90;486.40;;;;;;5052802;28;20586;-69
2021/06/05 11:38:18;;;;;;;23.60;4.80;;;896.90;486.40;;;;;;5052963;28;20125;-68
2021/06/05 11:40:48;;;;;;;67.55;9.15;;;896.90;537.60;;;;;;5052132;28;20032;-70
2021/06/05 11:43:29;;;;;;;77.75;7.65;;;896.90;563.20;;;;;;5051264;28;20101;-71
2021/06/05 11:46:16;;;;;;;58.40;12.05;;;896.90;537.60;;;;;;5065268;28;20132;-71
2021/06/05 11:48:48;;;;;;;32.50;19.48;;;896.90;512.00;;;;;;5093452;28;20019;-67
2021/06/05 11:51:22;;;;;;;16.67;8.48;;;896.90;486.40;;;;;;5092756;28;20032;-69
2021/06/05 11:53:59;;;;;;;10.13;4.38;;;896.90;486.40;;;;;;5093442;28;20024;-67
2021/06/05 11:56:33;;;;;;;5.20;2.70;;;896.90;460.80;;;;;;5089298;28;20039;-68
2021/06/05 11:59:16;;;;;;;8.02;2.33;;;896.80;460.80;;;;;;5095382;28;20024;-72
2021/06/05 12:01:41;;;;;;;5.18;2.38;;;896.80;460.80;;;;;;5091406;28;20458;-66
2021/06/05 12:04:11;;;;;;;3.63;2.22;;;896.80;486.40;;;;;;5093593;28;20031;-66
2021/06/05 12:06:44;;;;;;;4.72;1.98;;;896.80;435.20;;;;;;5094124;28;20473;-67
2021/06/05 12:09:18;;;;;;;4.40;2.17;;;896.60;460.80;;;;;;5085173;28;20466;-69
2021/06/05 12:11:54;;;;;;;5.22;2.47;;;896.60;460.80;;;;;;5093992;28;20119;-71
2021/06/05 12:14:44;;;;;;;5.70;2.30;;;896.80;460.80;;;;;;5094163;28;20035;-71
2021/06/05 12:17:40;;;;;;;5.18;2.17;;;896.80;460.80;;;;;;5094530;28;20022;-67
2021/06/05 12:20:21;;;;;;;6.10;2.25;;;896.60;435.20;;;;;;5095290;28;20466;-68
2021/06/05 12:22:53;;;;;;;114.72;102.90;;;896.50;435.20;;;;;;5092719;28;20474;-69
2021/06/05 12:25:27;;;;;;;331.13;298.48;;;896.50;460.80;;;;;;5093180;28;20028;-72
2021/06/05 12:28:06;;;;;;;102.85;91.68;;;896.40;460.80;;;;;;5091693;28;20020;-67